createdAt,value
2022-10-13T00:00:48.487Z,394.55
2022-10-13T00:03:15.608Z,396.33
2022-10-13T00:05:48.152Z,382.65
2022-10-13T00:08:18.923Z,375.30
2022-10-13T00:10:46.854Z,370.42
2022-10-13T00:13:13.573Z,362.48
2022-10-13T00:15:42.339Z,368.48
2022-10-13T00:18:09.184Z,372.40
2022-10-13T00:20:35.880Z,375.50
2022-10-13T00:23:02.515Z,383.38
2022-10-13T00:25:29.116Z,387.20
2022-10-13T00:27:55.770Z,382.43
2022-10-13T00:30:23.202Z,388.30
2022-10-13T00:32:50.302Z,392.97
2022-10-13T00:35:16.936Z,396.08
2022-10-13T00:37:43.521Z,385.88
2022-10-13T00:40:10.589Z,389.10
2022-10-13T00:42:37.221Z,389.55
2022-10-13T00:45:24.814Z,387.45
2022-10-13T00:48:02.000Z,384.23
2022-10-13T00:50:42.242Z,384.40
2022-10-13T00:53:10.632Z,393.27
2022-10-13T00:55:39.759Z,385.80
2022-10-13T00:58:10.404Z,382.65
2022-10-13T01:00:37.045Z,369.23
2022-10-13T01:03:04.226Z,388.13
2022-10-13T01:05:31.245Z,373.05
2022-10-13T01:07:59.388Z,374.47
2022-10-13T01:10:35.164Z,385.13
2022-10-13T01:13:13.808Z,384.85
2022-10-13T01:15:57.248Z,391.20
2022-10-13T01:18:40.960Z,387.85
2022-10-13T01:21:16.603Z,385.45
2022-10-13T01:23:49.083Z,394.83
2022-10-13T01:26:21.574Z,387.05
2022-10-13T01:29:37.552Z,393.65
2022-10-13T01:32:10.797Z,401.63
2022-10-13T01:34:50.069Z,403.30
2022-10-13T01:37:34.767Z,402.75
2022-10-13T01:40:25.657Z,399.30
2022-10-13T01:43:04.317Z,396.77
2022-10-13T01:45:37.528Z,385.53
2022-10-13T01:48:06.137Z,384.73
2022-10-13T01:50:40.831Z,383.35
2022-10-13T01:53:08.544Z,381.98
2022-10-13T01:55:35.143Z,382.58
2022-10-13T01:58:01.696Z,389.40
2022-10-13T02:00:40.236Z,394.05
2022-10-13T02:03:21.306Z,398.02
2022-10-13T02:06:01.708Z,388.83
2022-10-13T02:08:48.885Z,388.55
2022-10-13T02:11:21.490Z,392.30
2022-10-13T02:13:57.601Z,387.67
2022-10-13T02:16:28.947Z,390.45
2022-10-13T02:18:57.122Z,389.17
2022-10-13T02:21:24.430Z,396.75
2022-10-13T02:23:51.636Z,397.77
2022-10-13T02:26:20.124Z,398.35
2022-10-13T02:28:51.294Z,401.40
2022-10-13T02:31:18.013Z,398.90
2022-10-13T02:33:44.534Z,393.13
2022-10-13T02:36:11.104Z,400.02
2022-10-13T02:38:37.582Z,389.40
2022-10-13T02:41:04.156Z,394.67
2022-10-13T02:43:30.877Z,399.98
2022-10-13T02:45:57.476Z,394.70
2022-10-13T02:48:24.040Z,407.42
2022-10-13T02:50:50.749Z,405.77
2022-10-13T02:53:17.751Z,402.10
2022-10-13T02:55:44.490Z,401.00
2022-10-13T02:58:11.071Z,397.63
2022-10-13T03:00:39.622Z,412.70
2022-10-13T03:03:06.745Z,423.88
2022-10-13T03:05:33.493Z,418.05
2022-10-13T03:08:00.012Z,417.63
2022-10-13T03:10:26.985Z,408.23
2022-10-13T03:12:55.765Z,400.42
2022-10-13T03:15:22.576Z,409.50
2022-10-13T03:17:49.488Z,411.52
2022-10-13T03:20:16.502Z,413.70
2022-10-13T03:22:46.056Z,423.33
2022-10-13T03:25:16.190Z,404.25
2022-10-13T03:27:43.319Z,403.50
2022-10-13T03:30:10.588Z,396.67
2022-10-13T03:32:38.923Z,401.17
2022-10-13T03:35:06.358Z,397.15
2022-10-13T03:37:32.961Z,406.17
2022-10-13T03:39:59.975Z,406.98
2022-10-13T03:42:26.511Z,408.57
2022-10-13T03:44:56.289Z,398.42
2022-10-13T03:47:23.758Z,401.15
2022-10-13T03:49:50.330Z,404.05
2022-10-13T03:52:17.132Z,392.17
2022-10-13T03:54:43.954Z,397.30
2022-10-13T03:57:10.505Z,391.40
2022-10-13T03:59:37.243Z,398.17
2022-10-13T04:02:04.494Z,394.00
2022-10-13T04:04:31.086Z,383.90
2022-10-13T04:06:57.735Z,381.10
2022-10-13T04:09:24.400Z,382.80
2022-10-13T04:11:52.318Z,389.30
2022-10-13T04:14:20.121Z,400.17
2022-10-13T04:16:46.822Z,396.08
2022-10-13T04:19:15.178Z,389.90
2022-10-13T04:21:42.799Z,384.73
2022-10-13T04:24:17.631Z,383.13
2022-10-13T04:26:45.158Z,373.92
2022-10-13T04:29:12.225Z,371.85
2022-10-13T04:31:40.669Z,373.88
2022-10-13T04:34:07.803Z,374.27
2022-10-13T04:36:34.442Z,385.60
2022-10-13T04:39:01.015Z,394.27
2022-10-13T04:41:27.874Z,384.92
2022-10-13T04:43:55.065Z,370.98
2022-10-13T04:46:24.467Z,371.23
2022-10-13T04:48:51.705Z,375.10
2022-10-13T04:51:24.050Z,379.25
2022-10-13T04:54:01.453Z,367.13
2022-10-13T04:56:28.753Z,349.60
2022-10-13T04:58:59.832Z,365.60
2022-10-13T05:01:26.681Z,367.07
2022-10-13T05:04:01.419Z,373.50
2022-10-13T05:06:33.136Z,376.08
2022-10-13T05:09:00.205Z,370.30
2022-10-13T05:11:29.878Z,350.88
2022-10-13T05:13:57.407Z,361.90
2022-10-13T05:16:24.975Z,374.45
2022-10-13T05:18:53.969Z,390.30
2022-10-13T05:21:30.455Z,383.88
2022-10-13T05:23:58.742Z,366.30
2022-10-13T05:26:29.060Z,374.75
2022-10-13T05:28:57.238Z,389.15
2022-10-13T05:31:26.862Z,386.92
2022-10-13T05:33:54.087Z,370.25
2022-10-13T05:36:33.516Z,382.98
2022-10-13T05:39:05.708Z,378.17
2022-10-13T05:41:32.675Z,374.90
2022-10-13T05:44:02.801Z,370.13
2022-10-13T05:46:29.481Z,382.23
2022-10-13T05:48:56.116Z,379.63
2022-10-13T05:51:26.980Z,381.33
2022-10-13T05:54:01.249Z,367.80
2022-10-13T05:56:36.743Z,374.02
2022-10-13T05:59:06.687Z,374.60
2022-10-13T06:01:38.143Z,364.92
2022-10-13T06:04:08.639Z,372.80
2022-10-13T06:06:35.569Z,367.45
2022-10-13T06:09:02.209Z,372.00
2022-10-13T06:11:28.873Z,373.05
2022-10-13T06:13:55.501Z,348.88
2022-10-13T06:16:22.118Z,347.02
2022-10-13T06:18:48.747Z,348.40
2022-10-13T06:21:15.282Z,358.55
2022-10-13T06:23:41.873Z,356.77
2022-10-13T06:26:11.281Z,361.42
2022-10-13T06:28:38.170Z,354.00
2022-10-13T06:31:06.517Z,352.97
2022-10-13T06:33:34.174Z,360.77
2022-10-13T06:36:05.054Z,371.42
2022-10-13T06:38:32.591Z,365.20
2022-10-13T06:41:01.052Z,375.90
2022-10-13T06:43:37.251Z,358.73
2022-10-13T06:46:09.742Z,381.20
2022-10-13T06:48:36.321Z,391.83
2022-10-13T06:51:05.547Z,340.88
2022-10-13T06:53:32.494Z,354.60
2022-10-13T06:56:00.616Z,360.13
2022-10-13T06:58:28.313Z,353.05
2022-10-13T07:00:55.699Z,363.80
2022-10-13T07:03:23.923Z,364.75
2022-10-13T07:05:50.502Z,357.67
2022-10-13T07:08:17.153Z,357.35
2022-10-13T07:10:43.737Z,351.40
2022-10-13T07:13:10.270Z,335.90
2022-10-13T07:15:40.573Z,341.30
2022-10-13T07:18:07.438Z,347.58
2022-10-13T07:20:34.334Z,344.23
2022-10-13T07:23:00.954Z,346.35
2022-10-13T07:25:28.099Z,335.15
2022-10-13T07:27:54.821Z,329.83
2022-10-13T07:30:21.492Z,319.42
2022-10-13T07:32:48.874Z,332.83
2022-10-13T07:35:15.602Z,337.30
2022-10-13T07:37:42.150Z,333.27
2022-10-13T07:40:09.340Z,355.40
2022-10-13T07:42:36.065Z,343.42
2022-10-13T07:45:02.812Z,351.55
2022-10-13T07:47:30.433Z,360.17
2022-10-13T07:49:57.039Z,349.30
2022-10-13T07:52:23.595Z,344.60
2022-10-13T07:54:51.287Z,355.83
2022-10-13T07:57:18.344Z,357.92
2022-10-13T07:59:45.172Z,355.80
2022-10-13T08:02:13.198Z,343.10
2022-10-13T08:04:39.828Z,356.50
2022-10-13T08:07:06.906Z,349.70
2022-10-13T08:09:33.747Z,361.38
2022-10-13T08:12:01.778Z,365.77
2022-10-13T08:14:29.586Z,354.70
2022-10-13T08:16:57.079Z,358.67
2022-10-13T08:19:26.298Z,358.88
2022-10-13T08:21:58.195Z,358.77
2022-10-13T08:24:26.312Z,362.48
2022-10-13T08:26:53.122Z,343.42
2022-10-13T08:29:22.359Z,338.58
2022-10-13T08:31:52.737Z,319.13
2022-10-13T08:34:20.252Z,324.55
2022-10-13T08:36:47.271Z,301.95
2022-10-13T08:39:14.109Z,300.25
2022-10-13T08:41:43.958Z,301.37
2022-10-13T08:47:24.573Z,284.67
2022-10-13T08:49:52.149Z,277.45
2022-10-13T08:52:28.347Z,286.83
2022-10-13T08:54:56.366Z,290.23
2022-10-13T08:57:23.469Z,288.60
2022-10-13T08:59:51.374Z,300.52
2022-10-13T09:02:29.871Z,297.58
2022-10-13T09:04:58.802Z,295.85
2022-10-13T09:07:29.853Z,305.17
2022-10-13T09:09:56.554Z,296.25
2022-10-13T09:12:25.226Z,299.75
2022-10-13T09:15:05.699Z,294.63
2022-10-13T09:17:34.141Z,298.10
2022-10-13T09:20:16.529Z,303.58
2022-10-13T09:22:43.897Z,298.98
2022-10-13T09:25:22.186Z,305.27
2022-10-13T09:28:00.554Z,301.17
2022-10-13T09:30:34.649Z,305.15
2022-10-13T09:33:09.371Z,309.73
2022-10-13T09:35:36.958Z,305.42
2022-10-13T09:38:04.503Z,301.58
2022-10-13T09:40:32.336Z,312.38
2022-10-13T09:43:01.782Z,309.95
2022-10-13T09:45:30.948Z,313.77
2022-10-13T09:48:05.643Z,310.67
2022-10-13T09:50:35.513Z,312.25
2022-10-13T09:53:26.386Z,306.30
2022-10-13T09:56:23.474Z,292.55
2022-10-13T09:59:06.193Z,294.20
2022-10-13T10:01:38.674Z,275.75
2022-10-13T10:04:10.959Z,281.50
2022-10-13T10:06:40.365Z,285.42
2022-10-13T10:09:34.896Z,285.50
2022-10-13T10:12:04.050Z,285.67
2022-10-13T10:14:37.710Z,277.00
2022-10-13T10:17:35.257Z,269.15
2022-10-13T10:20:17.127Z,264.77
2022-10-13T10:23:14.122Z,269.77
2022-10-13T10:25:46.693Z,274.23
2022-10-13T10:28:56.990Z,267.95
2022-10-13T10:31:50.471Z,259.58
2022-10-13T10:34:54.485Z,256.38
2022-10-13T10:37:33.257Z,257.20
2022-10-13T10:40:08.835Z,248.10
2022-10-13T10:42:53.706Z,254.55
2022-10-13T10:45:27.403Z,246.35
2022-10-13T10:47:59.598Z,245.93
2022-10-13T10:50:28.605Z,243.77
2022-10-13T10:53:33.028Z,248.82
2022-10-13T10:56:30.687Z,250.20
2022-10-13T10:59:22.614Z,256.23
2022-10-13T11:02:03.759Z,253.40
2022-10-13T11:04:44.248Z,258.48
2022-10-13T11:07:24.290Z,254.10
2022-10-13T11:09:57.371Z,253.38
2022-10-13T11:12:25.961Z,244.53
2022-10-13T11:15:13.992Z,248.65
2022-10-13T11:17:41.914Z,245.32
2022-10-13T11:20:18.169Z,253.30
2022-10-13T11:23:00.162Z,249.20
2022-10-13T11:25:35.871Z,246.57
2022-10-13T11:28:42.658Z,254.77
2022-10-13T11:31:13.987Z,259.57
2022-10-13T11:33:40.652Z,250.18
2022-10-13T11:36:37.970Z,246.80
2022-10-13T11:42:14.777Z,227.38
2022-10-13T11:44:54.544Z,231.33
2022-10-13T11:47:48.968Z,229.73
2022-10-13T11:50:33.307Z,234.10
2022-10-13T11:53:18.746Z,237.02
2022-10-13T11:55:58.785Z,226.77
2022-10-13T11:58:32.932Z,237.75
2022-10-13T12:01:01.145Z,241.60
2022-10-13T12:03:33.895Z,252.27
2022-10-13T12:06:06.294Z,265.65
2022-10-13T12:08:35.294Z,264.70
2022-10-13T12:11:07.533Z,261.95
2022-10-13T12:13:36.177Z,276.90
2022-10-13T12:16:06.306Z,287.10
2022-10-13T12:18:39.069Z,288.40
2022-10-13T12:21:17.312Z,283.45
2022-10-13T12:23:44.091Z,287.80
2022-10-13T12:26:20.432Z,284.73
2022-10-13T12:28:51.906Z,323.73
2022-10-13T12:31:22.377Z,325.17
2022-10-13T12:34:00.451Z,317.48
2022-10-13T12:36:31.276Z,328.58
2022-10-13T12:39:07.670Z,321.45
2022-10-13T12:41:40.751Z,327.17
2022-10-13T12:44:15.051Z,338.02
2022-10-13T12:46:42.897Z,339.80
2022-10-13T12:51:49.379Z,327.60
2022-10-13T12:54:21.053Z,337.25
2022-10-13T12:56:53.779Z,331.25
2022-10-13T12:59:24.386Z,355.35
2022-10-13T13:02:20.038Z,339.25
2022-10-13T13:04:47.201Z,350.85
2022-10-13T13:07:31.748Z,350.77
2022-10-13T13:10:00.830Z,337.48
2022-10-13T13:12:29.214Z,327.10
2022-10-13T13:14:56.792Z,309.75
2022-10-13T13:17:57.290Z,293.92
2022-10-13T13:20:22.937Z,303.02
2022-10-13T13:22:50.744Z,308.77
2022-10-13T13:25:17.340Z,309.65
2022-10-13T13:27:43.843Z,308.97
2022-10-13T13:30:16.924Z,334.20
2022-10-13T13:32:43.570Z,320.33
2022-10-13T13:35:10.477Z,344.15
2022-10-13T13:37:44.465Z,328.40
2022-10-13T13:40:24.033Z,338.00
2022-10-13T13:42:50.851Z,311.90
2022-10-13T13:45:21.212Z,323.05
2022-10-13T13:47:49.784Z,309.85
2022-10-13T13:50:22.011Z,315.17
2022-10-13T13:52:56.241Z,308.67
2022-10-13T13:55:23.347Z,311.15
2022-10-13T13:57:49.922Z,322.50
2022-10-13T14:00:17.950Z,331.00
2022-10-13T14:02:49.538Z,339.45
2022-10-13T14:05:16.314Z,335.98
2022-10-13T14:07:42.970Z,322.75
2022-10-13T14:10:10.811Z,327.45
2022-10-13T14:12:37.742Z,342.50
2022-10-13T14:15:05.014Z,335.80
2022-10-13T14:17:31.629Z,326.30
2022-10-13T14:20:00.305Z,328.77
2022-10-13T14:22:27.084Z,326.98
2022-10-13T14:24:54.299Z,324.90
2022-10-13T14:27:21.126Z,320.27
2022-10-13T14:29:47.780Z,326.00
2022-10-13T14:32:15.496Z,335.65
2022-10-13T14:34:42.092Z,330.60
2022-10-13T14:37:08.642Z,329.60
2022-10-13T14:39:35.257Z,333.13
2022-10-13T14:42:01.901Z,342.65
2022-10-13T14:44:28.631Z,335.27
2022-10-13T14:46:55.316Z,336.05
2022-10-13T14:49:22.387Z,341.70
2022-10-13T14:51:51.270Z,338.20
2022-10-13T14:54:18.625Z,342.52
2022-10-13T14:56:45.359Z,345.92
2022-10-13T14:59:12.784Z,360.85
2022-10-13T15:01:41.736Z,336.88
2022-10-13T15:04:09.124Z,342.80
2022-10-13T15:06:40.290Z,341.55
2022-10-13T15:11:36.435Z,325.00
2022-10-13T15:14:03.238Z,309.27
2022-10-13T15:16:33.590Z,305.05
2022-10-13T15:19:00.442Z,300.33
2022-10-13T15:21:27.092Z,294.50
2022-10-13T15:23:53.786Z,300.85
2022-10-13T15:26:20.599Z,313.50
2022-10-13T15:28:51.108Z,307.27
2022-10-13T15:31:19.388Z,312.93
2022-10-13T15:33:49.320Z,311.75
2022-10-13T15:36:17.041Z,293.48
2022-10-13T15:38:45.654Z,299.13
2022-10-13T15:41:12.898Z,289.60
2022-10-13T15:43:39.578Z,281.13
2022-10-13T15:46:10.447Z,301.63
2022-10-13T15:48:37.383Z,301.67
2022-10-13T15:51:13.457Z,306.63
2022-10-13T15:53:40.090Z,292.23
2022-10-13T15:56:07.793Z,284.50
2022-10-13T15:58:35.898Z,309.02
2022-10-13T16:01:07.501Z,315.08
2022-10-13T16:03:34.328Z,318.80
2022-10-13T16:06:04.422Z,308.98
2022-10-13T16:08:31.528Z,310.02
2022-10-13T16:10:58.174Z,327.08
2022-10-13T16:13:24.817Z,318.02
2022-10-13T16:16:01.142Z,319.42
2022-10-13T16:18:32.522Z,327.03
2022-10-13T16:20:59.188Z,332.15
2022-10-13T16:23:26.253Z,330.85
2022-10-13T16:25:53.153Z,332.80
2022-10-13T16:28:19.952Z,332.83
2022-10-13T16:30:46.577Z,328.65
2022-10-13T16:33:13.167Z,335.85
2022-10-13T16:35:39.863Z,324.38
2022-10-13T16:38:06.465Z,331.27
2022-10-13T16:40:33.073Z,314.17
2022-10-13T16:42:59.698Z,324.38
2022-10-13T16:45:41.334Z,326.58
2022-10-13T16:48:13.122Z,332.42
2022-10-13T16:50:39.633Z,333.97
2022-10-13T16:53:06.199Z,337.67
2022-10-13T16:55:32.846Z,339.27
2022-10-13T16:57:59.460Z,332.25
2022-10-13T17:00:26.160Z,325.80
2022-10-13T17:02:53.104Z,314.17
2022-10-13T17:05:19.727Z,322.58
2022-10-13T17:07:46.350Z,297.77
2022-10-13T17:10:12.933Z,310.73
2022-10-13T17:12:39.554Z,300.02
2022-10-13T17:15:06.569Z,293.73
2022-10-13T17:17:33.222Z,287.00
2022-10-13T17:19:59.844Z,283.30
2022-10-13T17:22:26.474Z,293.23
2022-10-13T17:24:53.142Z,285.98
2022-10-13T17:27:20.096Z,294.33
2022-10-13T17:29:46.974Z,300.08
2022-10-13T17:32:13.613Z,296.05
2022-10-13T17:34:40.250Z,300.63
2022-10-13T17:37:07.330Z,319.85
2022-10-13T17:39:34.392Z,332.13
2022-10-13T17:42:01.034Z,331.85
2022-10-13T17:44:27.636Z,321.98
2022-10-13T17:46:54.195Z,318.70
2022-10-13T17:49:20.866Z,318.85
2022-10-13T17:51:51.702Z,318.98
2022-10-13T17:54:22.311Z,326.23
2022-10-13T17:56:49.444Z,313.88
2022-10-13T17:59:17.571Z,323.13
2022-10-13T18:01:45.101Z,325.60
2022-10-13T18:04:14.224Z,326.05
2022-10-13T18:06:43.720Z,334.30
2022-10-13T18:09:16.528Z,326.33
2022-10-13T18:11:49.821Z,329.10
2022-10-13T18:14:18.546Z,330.38
2022-10-13T18:16:45.446Z,324.15
2022-10-13T18:19:12.647Z,331.83
2022-10-13T18:21:39.300Z,327.38
2022-10-13T18:24:06.271Z,331.13
2022-10-13T18:26:35.775Z,326.33
2022-10-13T18:29:03.907Z,324.40
2022-10-13T18:31:32.801Z,317.27
2022-10-13T18:34:02.492Z,332.15
2022-10-13T18:36:36.629Z,326.50
2022-10-13T18:39:13.679Z,327.83
2022-10-13T18:41:45.957Z,323.92
2022-10-13T18:44:13.039Z,327.33
2022-10-13T18:46:40.370Z,326.30
2022-10-13T18:49:08.537Z,336.38
2022-10-13T18:51:39.016Z,335.48
2022-10-13T18:54:06.726Z,335.65
2022-10-13T18:56:34.777Z,339.58
2022-10-13T18:59:02.729Z,327.38
2022-10-13T19:01:31.932Z,315.23
2022-10-13T19:03:58.631Z,324.30
2022-10-13T19:06:27.665Z,329.42
2022-10-13T19:09:04.298Z,323.13
2022-10-13T19:11:35.387Z,325.30
2022-10-13T19:14:03.045Z,322.70
2022-10-13T19:16:31.345Z,325.05
2022-10-13T19:18:58.023Z,329.98
2022-10-13T19:21:25.060Z,314.40
2022-10-13T19:23:51.730Z,334.23
2022-10-13T19:26:28.418Z,331.80
2022-10-13T19:29:07.455Z,339.13
2022-10-13T19:31:35.664Z,340.23
2022-10-13T19:34:06.986Z,330.77
2022-10-13T19:36:37.737Z,343.75
2022-10-13T19:39:09.278Z,331.45
2022-10-13T19:41:38.218Z,343.13
2022-10-13T19:44:04.916Z,338.38
2022-10-13T19:46:38.539Z,339.95
2022-10-13T19:49:05.678Z,338.75
2022-10-13T19:51:33.504Z,349.92
2022-10-13T19:54:00.754Z,336.95
2022-10-13T19:56:33.912Z,328.88
2022-10-13T19:59:01.852Z,334.33
2022-10-13T20:01:28.575Z,332.33
2022-10-13T20:03:57.456Z,335.02
2022-10-13T20:06:24.079Z,332.27
2022-10-13T20:08:50.714Z,338.80
2022-10-13T20:11:24.127Z,324.25
2022-10-13T20:13:52.046Z,344.17
2022-10-13T20:16:21.416Z,343.83
2022-10-13T20:18:56.309Z,339.53
2022-10-13T20:21:24.078Z,335.67
2022-10-13T20:23:51.251Z,327.60
2022-10-13T20:26:18.855Z,329.45
2022-10-13T20:28:46.939Z,333.92
2022-10-13T20:31:15.945Z,327.95
2022-10-13T20:33:42.721Z,325.30
2022-10-13T20:36:12.467Z,340.25
2022-10-13T20:38:39.502Z,346.42
2022-10-13T20:41:24.857Z,352.17
2022-10-13T20:43:53.163Z,354.38
2022-10-13T20:46:21.598Z,355.33
2022-10-13T20:51:36.504Z,358.27
2022-10-13T20:54:03.093Z,357.83
2022-10-13T20:56:29.884Z,366.38
2022-10-13T20:58:56.700Z,365.93
2022-10-13T21:01:23.877Z,363.50
2022-10-13T21:03:54.459Z,364.52
2022-10-13T21:06:23.407Z,363.52
2022-10-13T21:08:50.821Z,366.25
2022-10-13T21:11:20.356Z,374.60
2022-10-13T21:13:48.075Z,368.45
2022-10-13T21:16:17.350Z,370.48
2022-10-13T21:18:49.058Z,375.85
2022-10-13T21:21:19.279Z,383.27
2022-10-13T21:23:57.786Z,392.02
2022-10-13T21:26:26.919Z,392.23
2022-10-13T21:28:53.680Z,387.63
2022-10-13T21:31:22.220Z,381.13
2022-10-13T21:33:49.712Z,386.90
2022-10-13T21:36:23.246Z,381.27
2022-10-13T21:38:55.869Z,389.33
2022-10-13T21:41:23.002Z,382.40
2022-10-13T21:43:50.473Z,396.80
2022-10-13T21:46:26.703Z,397.70
2022-10-13T21:48:55.262Z,388.60
2022-10-13T21:51:24.657Z,396.13
2022-10-13T21:53:56.862Z,395.90
2022-10-13T21:56:25.491Z,386.73
2022-10-13T21:58:52.376Z,401.15
2022-10-13T22:01:19.818Z,405.02
2022-10-13T22:03:48.008Z,404.20
2022-10-13T22:06:19.370Z,398.67
2022-10-13T22:08:48.781Z,400.45
2022-10-13T22:11:22.729Z,406.58
2022-10-13T22:13:49.628Z,367.48
2022-10-13T22:16:20.680Z,395.63
2022-10-13T22:18:48.400Z,414.33
2022-10-13T22:21:25.204Z,400.95
2022-10-13T22:23:52.049Z,420.13
2022-10-13T22:26:19.140Z,412.88
2022-10-13T22:28:51.320Z,418.48
2022-10-13T22:31:18.743Z,423.73
2022-10-13T22:33:46.472Z,422.85
2022-10-13T22:36:18.622Z,427.00
2022-10-13T22:38:46.845Z,419.75
2022-10-13T22:41:14.759Z,421.38
2022-10-13T22:43:46.626Z,427.80
2022-10-13T22:46:15.099Z,427.98
2022-10-13T22:48:41.931Z,430.75
2022-10-13T22:51:15.819Z,424.83
2022-10-13T22:53:42.637Z,431.80
2022-10-13T22:56:12.985Z,435.48
2022-10-13T22:58:39.677Z,433.55
2022-10-13T23:01:14.572Z,436.05
2022-10-13T23:03:42.395Z,445.70
2022-10-13T23:06:13.492Z,448.65
2022-10-13T23:08:41.598Z,454.85
2022-10-13T23:11:08.338Z,443.23
2022-10-13T23:13:35.341Z,438.07
2022-10-13T23:16:10.443Z,437.17
2022-10-13T23:18:42.648Z,436.05
2022-10-13T23:21:23.923Z,440.75
2022-10-13T23:24:04.691Z,437.13
2022-10-13T23:26:32.396Z,441.67
2022-10-13T23:28:59.729Z,440.23
2022-10-13T23:31:27.507Z,444.15
2022-10-13T23:33:54.371Z,444.27
2022-10-13T23:36:24.243Z,444.65
2022-10-13T23:39:03.602Z,453.50
2022-10-13T23:41:30.663Z,452.70
2022-10-13T23:43:57.591Z,446.20
2022-10-13T23:46:24.670Z,454.73
2022-10-13T23:48:51.603Z,452.02
2022-10-13T23:51:20.517Z,445.70
2022-10-13T23:53:47.373Z,436.42
2022-10-13T23:56:15.152Z,453.67
2022-10-13T23:58:43.789Z,466.20
